Arnoldsburg, WV

4:25 PM EDT on August 02, 2015 (GMT -0400)
Park Avenue | | Change Station
CLOSE
Current Station
Personal Weather Station
Location: Spencer, WV
Elevation: 820 ft
Nearby Weather Stations

Elev 820 ft 38.79 °N, 81.36 °W | Updated 2 seconds ago

Partly Cloudy
Partly Cloudy
84.1 °F
Feels Like 85 °F
N
0.0
Wind Variable Wind from SSE
Gusts 7.0 mph

Today
High -- | Low -- °F
--% Chance of Precip.
Yesterday
High -- | Low -- °F
Precip. -- in
6:26 AM 8:34 PM
Waning Gibbous, 92% visible
Pressure 29.96 in
Visibility 10.0 miles
Clouds Few 7000 ft
Heat Index 85 °F
Dew Point 63 °F
Humidity 49%
Rainfall 0.00 in
Snow Depth Not available.
UV 8 out of 12
Pollen 4.90 out of 12
Air Quality Not available.
Flu Activity Not available.
METAR KPKB 021953Z 20007KT 10SM FEW070 30/14 A2998 RMK AO2 SLP145 T03000144

More Conditions Fewer Conditions

Pressure 29.96 in
Visibility 10.0 miles
Clouds Few 7000 ft
Heat Index 85 °F
Dew Point 63 °F
Humidity 49%
Rainfall 0.00 in
Snow Depth Not available.
UV 8 out of 12
Pollen 4.90 out of 12
Air Quality Not available.
Flu Activity Not available.
METAR KPKB 021953Z 20007KT 10SM FEW070 30/14 A2998 RMK AO2 SLP145 T03000144

More Conditions Fewer Conditions

10-Day Weather Forecast

×

Almanac

Astronomy

Aug. 02, 2015 Rise Set
Actual Time
Civil Twilight
Nautical Twilight
Astronomical Twilight
Moon
Length of Visible Light
Length of Day
Tomorrow will be .
, % of the Moon is Illuminated

Today's Extremes

State Highs State Lows

Community

WunderPhotos

Upload Photos

1,843,364 photos uploaded!

WunderBlogs® & News

Nearby

Air Quality

  Air Quality AQ Index Pollutant
Not available.

Snow Depth

Station Depth Elevation

Earthquake Activity

City Distance Mag. Time & Date
Minimum magnitude displayed is 2.5.

Coastal Water Temperatures

Place Temperature

Stations

Nearby Weather Stations

Station Location Temp. Windchill Dew Point Humidity Wind Precip. Elev Updated Type